sensor_id;sensor_type;location;lat;lon;timestamp;pressure;altitude;pressure_sealevel;temperature;humidity
16664;BME280;8445;51.270;9.434;2022-12-10T00:00:45;98553.75;;;1.13;81.69
16664;BME280;8445;51.270;9.434;2022-12-10T00:03:10;98554.66;;;1.12;81.30
16664;BME280;8445;51.270;9.434;2022-12-10T00:05:36;98549.56;;;1.11;81.06
16664;BME280;8445;51.270;9.434;2022-12-10T00:08:01;98549.47;;;1.12;81.52
16664;BME280;8445;51.270;9.434;2022-12-10T00:10:27;98550.31;;;1.13;81.85
16664;BME280;8445;51.270;9.434;2022-12-10T00:12:52;98547.09;;;1.08;82.17
16664;BME280;8445;51.270;9.434;2022-12-10T00:15:18;98550.63;;;1.07;82.23
16664;BME280;8445;51.270;9.434;2022-12-10T00:17:43;98546.94;;;1.11;81.62
16664;BME280;8445;51.270;9.434;2022-12-10T00:20:09;98547.88;;;1.10;81.96
16664;BME280;8445;51.270;9.434;2022-12-10T00:22:37;98544.66;;;1.05;81.66
16664;BME280;8445;51.270;9.434;2022-12-10T00:25:03;98551.84;;;0.99;82.14
16664;BME280;8445;51.270;9.434;2022-12-10T00:27:30;98550.84;;;1.02;81.61
16664;BME280;8445;51.270;9.434;2022-12-10T00:29:59;98545.78;;;0.99;81.67
16664;BME280;8445;51.270;9.434;2022-12-10T00:32:28;98542.34;;;0.98;81.44
16664;BME280;8445;51.270;9.434;2022-12-10T00:34:54;98545.09;;;0.95;81.85
16664;BME280;8445;51.270;9.434;2022-12-10T00:37:20;98543.72;;;0.88;81.67
16664;BME280;8445;51.270;9.434;2022-12-10T00:39:45;98540.34;;;0.86;81.47
16664;BME280;8445;51.270;9.434;2022-12-10T00:42:11;98548.41;;;0.81;81.87
16664;BME280;8445;51.270;9.434;2022-12-10T00:44:36;98552.91;;;0.78;81.62
16664;BME280;8445;51.270;9.434;2022-12-10T00:47:02;98550.44;;;0.74;82.23
16664;BME280;8445;51.270;9.434;2022-12-10T00:49:27;98552.13;;;0.76;82.13
16664;BME280;8445;51.270;9.434;2022-12-10T00:51:53;98555.44;;;0.79;81.88
16664;BME280;8445;51.270;9.434;2022-12-10T00:54:18;98553.53;;;0.83;81.68
16664;BME280;8445;51.270;9.434;2022-12-10T00:56:44;98563.94;;;0.83;81.49
16664;BME280;8445;51.270;9.434;2022-12-10T00:59:10;98558.09;;;0.78;81.78
16664;BME280;8445;51.270;9.434;2022-12-10T01:01:41;98558.25;;;0.74;81.91
16664;BME280;8445;51.270;9.434;2022-12-10T01:04:10;98552.44;;;0.69;82.69
16664;BME280;8445;51.270;9.434;2022-12-10T01:06:47;98550.13;;;0.63;82.54
16664;BME280;8445;51.270;9.434;2022-12-10T01:09:16;98552.66;;;0.65;81.13
16664;BME280;8445;51.270;9.434;2022-12-10T01:11:45;98560.75;;;0.58;81.58
16664;BME280;8445;51.270;9.434;2022-12-10T01:14:17;98564.19;;;0.59;81.37
16664;BME280;8445;51.270;9.434;2022-12-10T01:16:46;98563.59;;;0.54;81.67
16664;BME280;8445;51.270;9.434;2022-12-10T01:19:12;98574.06;;;0.52;81.61
16664;BME280;8445;51.270;9.434;2022-12-10T01:21:38;98565.34;;;0.53;81.62
16664;BME280;8445;51.270;9.434;2022-12-10T01:24:04;98566.50;;;0.48;82.18
16664;BME280;8445;51.270;9.434;2022-12-10T01:26:32;98564.56;;;0.51;81.99
16664;BME280;8445;51.270;9.434;2022-12-10T01:29:00;98568.88;;;0.52;82.87
16664;BME280;8445;51.270;9.434;2022-12-10T01:31:28;98574.06;;;0.52;82.44
16664;BME280;8445;51.270;9.434;2022-12-10T01:33:54;98566.22;;;0.54;82.97
16664;BME280;8445;51.270;9.434;2022-12-10T01:36:31;98577.31;;;0.57;82.96
16664;BME280;8445;51.270;9.434;2022-12-10T01:38:58;98578.22;;;0.56;82.36
16664;BME280;8445;51.270;9.434;2022-12-10T01:41:27;98575.63;;;0.56;83.00
16664;BME280;8445;51.270;9.434;2022-12-10T01:46:36;98586.88;;;0.57;81.24
16664;BME280;8445;51.270;9.434;2022-12-10T01:49:06;98581.97;;;0.51;81.14
16664;BME280;8445;51.270;9.434;2022-12-10T01:51:34;98584.84;;;0.44;82.01
16664;BME280;8445;51.270;9.434;2022-12-10T01:54:04;98582.25;;;0.44;81.32
16664;BME280;8445;51.270;9.434;2022-12-10T01:56:31;98584.22;;;0.39;81.05
16664;BME280;8445;51.270;9.434;2022-12-10T01:59:00;98581.81;;;0.35;81.36
16664;BME280;8445;51.270;9.434;2022-12-10T02:01:43;98589.56;;;0.36;81.33
16664;BME280;8445;51.270;9.434;2022-12-10T02:04:24;98585.13;;;0.38;81.06
16664;BME280;8445;51.270;9.434;2022-12-10T02:09:42;98583.31;;;0.40;82.11
16664;BME280;8445;51.270;9.434;2022-12-10T02:12:23;98593.09;;;0.35;82.08
16664;BME280;8445;51.270;9.434;2022-12-10T02:14:59;98585.91;;;0.40;81.95
16664;BME280;8445;51.270;9.434;2022-12-10T02:17:34;98578.16;;;0.39;82.28
16664;BME280;8445;51.270;9.434;2022-12-10T02:22:36;98585.91;;;0.40;81.99
16664;BME280;8445;51.270;9.434;2022-12-10T02:25:04;98585.91;;;0.40;82.13
16664;BME280;8445;51.270;9.434;2022-12-10T02:27:47;98580.56;;;0.43;82.31
16664;BME280;8445;51.270;9.434;2022-12-10T02:30:17;98587.47;;;0.44;81.95
16664;BME280;8445;51.270;9.434;2022-12-10T02:32:45;98583.09;;;0.45;82.44
16664;BME280;8445;51.270;9.434;2022-12-10T02:35:21;98582.78;;;0.51;82.17
16664;BME280;8445;51.270;9.434;2022-12-10T02:38:15;98584.19;;;0.58;82.69
16664;BME280;8445;51.270;9.434;2022-12-10T02:40:46;98580.66;;;0.59;82.39
16664;BME280;8445;51.270;9.434;2022-12-10T02:43:14;98576.16;;;0.63;82.30
16664;BME280;8445;51.270;9.434;2022-12-10T02:45:43;98592.69;;;0.62;82.25
16664;BME280;8445;51.270;9.434;2022-12-10T02:48:12;98587.56;;;0.61;82.26
16664;BME280;8445;51.270;9.434;2022-12-10T02:50:41;98587.41;;;0.64;82.41
16664;BME280;8445;51.270;9.434;2022-12-10T02:53:06;98580.13;;;0.53;81.87
16664;BME280;8445;51.270;9.434;2022-12-10T02:58:20;98580.44;;;0.47;82.71
16664;BME280;8445;51.270;9.434;2022-12-10T03:01:12;98582.03;;;0.49;82.31
16664;BME280;8445;51.270;9.434;2022-12-10T03:03:49;98583.78;;;0.49;81.92
16664;BME280;8445;51.270;9.434;2022-12-10T03:06:29;98585.47;;;0.50;82.13
16664;BME280;8445;51.270;9.434;2022-12-10T03:11:45;98581.25;;;0.47;81.48
16664;BME280;8445;51.270;9.434;2022-12-10T03:14:18;98574.66;;;0.40;81.46
16664;BME280;8445;51.270;9.434;2022-12-10T03:16:50;98577.19;;;0.41;82.00
16664;BME280;8445;51.270;9.434;2022-12-10T03:19:20;98578.72;;;0.46;81.91
16664;BME280;8445;51.270;9.434;2022-12-10T03:21:49;98583.56;;;0.53;81.90
16664;BME280;8445;51.270;9.434;2022-12-10T03:24:18;98576.47;;;0.57;81.79
16664;BME280;8445;51.270;9.434;2022-12-10T03:26:47;98574.59;;;0.59;82.42
16664;BME280;8445;51.270;9.434;2022-12-10T03:29:21;98573.50;;;0.65;82.15
16664;BME280;8445;51.270;9.434;2022-12-10T03:31:49;98577.53;;;0.70;81.83
16664;BME280;8445;51.270;9.434;2022-12-10T03:34:20;98578.31;;;0.72;81.74
16664;BME280;8445;51.270;9.434;2022-12-10T03:36:49;98572.34;;;0.70;82.03
16664;BME280;8445;51.270;9.434;2022-12-10T03:39:15;98582.59;;;0.73;81.93
16664;BME280;8445;51.270;9.434;2022-12-10T03:41:41;98579.78;;;0.78;82.16
16664;BME280;8445;51.270;9.434;2022-12-10T03:44:06;98579.84;;;0.77;82.16
16664;BME280;8445;51.270;9.434;2022-12-10T03:46:32;98575.41;;;0.79;82.05
16664;BME280;8445;51.270;9.434;2022-12-10T03:48:59;98581.38;;;0.81;82.35
16664;BME280;8445;51.270;9.434;2022-12-10T03:51:25;98577.97;;;0.80;82.13
16664;BME280;8445;51.270;9.434;2022-12-10T03:53:50;98584.28;;;0.74;82.65
16664;BME280;8445;51.270;9.434;2022-12-10T03:56:18;98580.78;;;0.76;82.21
16664;BME280;8445;51.270;9.434;2022-12-10T03:58:43;98591.03;;;0.79;82.37
16664;BME280;8445;51.270;9.434;2022-12-10T04:01:09;98594.66;;;0.76;82.43
16664;BME280;8445;51.270;9.434;2022-12-10T04:03:35;98589.28;;;0.79;82.29
16664;BME280;8445;51.270;9.434;2022-12-10T04:06:07;98587.81;;;0.73;82.90
16664;BME280;8445;51.270;9.434;2022-12-10T04:08:33;98595.63;;;0.73;82.87
16664;BME280;8445;51.270;9.434;2022-12-10T04:11:06;98590.34;;;0.75;83.02
16664;BME280;8445;51.270;9.434;2022-12-10T04:13:33;98583.47;;;0.74;83.44
16664;BME280;8445;51.270;9.434;2022-12-10T04:16:18;98586.13;;;0.72;83.41
16664;BME280;8445;51.270;9.434;2022-12-10T04:18:53;98578.09;;;0.77;83.22
16664;BME280;8445;51.270;9.434;2022-12-10T04:21:20;98588.44;;;0.79;82.77
16664;BME280;8445;51.270;9.434;2022-12-10T04:24:04;98583.22;;;0.79;82.85
16664;BME280;8445;51.270;9.434;2022-12-10T04:26:49;98593.50;;;0.82;82.64
16664;BME280;8445;51.270;9.434;2022-12-10T04:29:19;98588.28;;;0.82;82.27
16664;BME280;8445;51.270;9.434;2022-12-10T04:31:44;98590.59;;;0.88;82.45
16664;BME280;8445;51.270;9.434;2022-12-10T04:34:09;98581.09;;;0.87;82.23
16664;BME280;8445;51.270;9.434;2022-12-10T04:36:35;98582.88;;;0.86;82.28
16664;BME280;8445;51.270;9.434;2022-12-10T04:39:00;98588.06;;;0.86;82.47
16664;BME280;8445;51.270;9.434;2022-12-10T04:41:26;98581.25;;;0.84;82.21
16664;BME280;8445;51.270;9.434;2022-12-10T04:43:52;98586.53;;;0.82;82.70
16664;BME280;8445;51.270;9.434;2022-12-10T04:46:18;98591.75;;;0.82;83.04
16664;BME280;8445;51.270;9.434;2022-12-10T04:48:43;98589.97;;;0.83;83.19
16664;BME280;8445;51.270;9.434;2022-12-10T04:51:08;98590.69;;;0.86;82.78
16664;BME280;8445;51.270;9.434;2022-12-10T04:53:34;98583.69;;;0.87;82.85
16664;BME280;8445;51.270;9.434;2022-12-10T04:55:59;98586.22;;;0.88;82.58
16664;BME280;8445;51.270;9.434;2022-12-10T04:58:26;98588.00;;;0.88;82.79
16664;BME280;8445;51.270;9.434;2022-12-10T05:01:03;98591.50;;;0.87;82.89
16664;BME280;8445;51.270;9.434;2022-12-10T05:03:29;98588.75;;;0.90;82.81
16664;BME280;8445;51.270;9.434;2022-12-10T05:05:54;98589.66;;;0.89;82.76
16664;BME280;8445;51.270;9.434;2022-12-10T05:08:20;98601.00;;;0.88;82.98
16664;BME280;8445;51.270;9.434;2022-12-10T05:10:46;98601.00;;;0.88;83.00
16664;BME280;8445;51.270;9.434;2022-12-10T05:13:11;98600.19;;;0.87;82.60
16664;BME280;8445;51.270;9.434;2022-12-10T05:15:39;98608.06;;;0.86;83.12
16664;BME280;8445;51.270;9.434;2022-12-10T05:18:05;98605.53;;;0.84;82.66
16664;BME280;8445;51.270;9.434;2022-12-10T05:20:30;98608.06;;;0.86;82.83
16664;BME280;8445;51.270;9.434;2022-12-10T05:22:56;98603.84;;;0.83;82.93
16664;BME280;8445;51.270;9.434;2022-12-10T05:25:40;98612.47;;;0.84;82.51
16664;BME280;8445;51.270;9.434;2022-12-10T05:28:21;98613.09;;;0.89;82.37
16664;BME280;8445;51.270;9.434;2022-12-10T05:30:50;98606.97;;;0.90;82.90
16664;BME280;8445;51.270;9.434;2022-12-10T05:33:17;98609.59;;;0.90;82.49
16664;BME280;8445;51.270;9.434;2022-12-10T05:35:43;98611.28;;;0.91;82.45
16664;BME280;8445;51.270;9.434;2022-12-10T05:38:09;98614.78;;;0.90;82.32
16664;BME280;8445;51.270;9.434;2022-12-10T05:40:37;98608.00;;;0.87;82.15
16664;BME280;8445;51.270;9.434;2022-12-10T05:43:02;98615.81;;;0.87;81.96
16664;BME280;8445;51.270;9.434;2022-12-10T05:45:28;98614.94;;;0.87;81.89
16664;BME280;8445;51.270;9.434;2022-12-10T05:47:54;98612.25;;;0.88;82.00
16664;BME280;8445;51.270;9.434;2022-12-10T05:50:19;98610.81;;;0.83;82.33
16664;BME280;8445;51.270;9.434;2022-12-10T05:52:46;98611.03;;;0.78;82.28
16664;BME280;8445;51.270;9.434;2022-12-10T05:55:11;98611.19;;;0.75;82.19
16664;BME280;8445;51.270;9.434;2022-12-10T05:57:37;98616.53;;;0.72;82.31
16664;BME280;8445;51.270;9.434;2022-12-10T06:00:04;98616.38;;;0.75;82.67
16664;BME280;8445;51.270;9.434;2022-12-10T06:02:37;98622.28;;;0.79;82.57
16664;BME280;8445;51.270;9.434;2022-12-10T06:05:03;98625.75;;;0.79;82.73
16664;BME280;8445;51.270;9.434;2022-12-10T06:07:29;98619.66;;;0.79;82.62
16664;BME280;8445;51.270;9.434;2022-12-10T06:09:55;98626.38;;;0.84;82.68
16664;BME280;8445;51.270;9.434;2022-12-10T06:12:21;98628.88;;;0.86;83.09
16664;BME280;8445;51.270;9.434;2022-12-10T06:14:46;98630.72;;;0.84;83.20
16664;BME280;8445;51.270;9.434;2022-12-10T06:17:12;98625.34;;;0.87;82.76
16664;BME280;8445;51.270;9.434;2022-12-10T06:19:37;98624.44;;;0.88;82.61
16664;BME280;8445;51.270;9.434;2022-12-10T06:22:03;98628.66;;;0.91;82.96
16664;BME280;8445;51.270;9.434;2022-12-10T06:24:29;98634.63;;;0.93;82.67
16664;BME280;8445;51.270;9.434;2022-12-10T06:26:58;98631.97;;;0.94;82.97
16664;BME280;8445;51.270;9.434;2022-12-10T06:29:27;98638.91;;;0.94;82.84
16664;BME280;8445;51.270;9.434;2022-12-10T06:31:53;98631.03;;;0.95;82.43
16664;BME280;8445;51.270;9.434;2022-12-10T06:34:18;98637.03;;;0.97;83.13
16664;BME280;8445;51.270;9.434;2022-12-10T06:36:43;98643.78;;;1.01;83.08
16664;BME280;8445;51.270;9.434;2022-12-10T06:39:09;98644.75;;;0.99;82.95
16664;BME280;8445;51.270;9.434;2022-12-10T06:44:33;98649.28;;;0.95;82.54
16664;BME280;8445;51.270;9.434;2022-12-10T06:46:58;98649.41;;;0.92;82.88
16664;BME280;8445;51.270;9.434;2022-12-10T06:49:24;98643.44;;;0.90;82.97
16664;BME280;8445;51.270;9.434;2022-12-10T06:51:50;98658.16;;;0.91;83.24
16664;BME280;8445;51.270;9.434;2022-12-10T06:54:15;98651.25;;;0.90;83.10
16664;BME280;8445;51.270;9.434;2022-12-10T06:56:40;98646.88;;;0.91;83.03
16664;BME280;8445;51.270;9.434;2022-12-10T06:59:06;98657.28;;;0.91;82.94
16664;BME280;8445;51.270;9.434;2022-12-10T07:01:32;98659.97;;;0.89;83.02
16664;BME280;8445;51.270;9.434;2022-12-10T07:03:57;98656.59;;;0.87;83.02
16664;BME280;8445;51.270;9.434;2022-12-10T07:06:24;98658.28;;;0.88;83.30
16664;BME280;8445;51.270;9.434;2022-12-10T07:08:50;98664.31;;;0.88;83.13
16664;BME280;8445;51.270;9.434;2022-12-10T07:11:19;98666.25;;;0.85;83.25
16664;BME280;8445;51.270;9.434;2022-12-10T07:13:45;98659.97;;;0.89;83.38
16664;BME280;8445;51.270;9.434;2022-12-10T07:18:37;98672.22;;;0.87;83.23
16664;BME280;8445;51.270;9.434;2022-12-10T07:21:22;98670.06;;;0.78;83.47
16664;BME280;8445;51.270;9.434;2022-12-10T07:23:51;98676.31;;;0.73;83.40
16664;BME280;8445;51.270;9.434;2022-12-10T07:26:19;98678.09;;;0.73;83.50
16664;BME280;8445;51.270;9.434;2022-12-10T07:28:45;98681.53;;;0.73;83.42
16664;BME280;8445;51.270;9.434;2022-12-10T07:31:11;98678.28;;;0.68;83.27
16664;BME280;8445;51.270;9.434;2022-12-10T07:33:37;98690.53;;;0.66;83.24
16664;BME280;8445;51.270;9.434;2022-12-10T07:36:08;98694.19;;;0.62;83.43
16664;BME280;8445;51.270;9.434;2022-12-10T07:38:34;98686.75;;;0.54;84.27
16664;BME280;8445;51.270;9.434;2022-12-10T07:41:08;98697.94;;;0.56;83.74
16664;BME280;8445;51.270;9.434;2022-12-10T07:43:35;98693.72;;;0.54;83.55
16664;BME280;8445;51.270;9.434;2022-12-10T07:46:10;98692.09;;;0.51;83.92
16664;BME280;8445;51.270;9.434;2022-12-10T07:48:37;98698.06;;;0.53;83.13
16664;BME280;8445;51.270;9.434;2022-12-10T07:51:03;98694.69;;;0.51;83.66
16664;BME280;8445;51.270;9.434;2022-12-10T07:53:30;98699.00;;;0.52;83.54
16664;BME280;8445;51.270;9.434;2022-12-10T07:55:55;98700.03;;;0.48;83.62
16664;BME280;8445;51.270;9.434;2022-12-10T07:58:21;98710.41;;;0.50;83.54
16664;BME280;8445;51.270;9.434;2022-12-10T08:00:46;98707.00;;;0.48;83.64
16664;BME280;8445;51.270;9.434;2022-12-10T08:03:12;98709.53;;;0.49;83.50
16664;BME280;8445;51.270;9.434;2022-12-10T08:05:38;98705.69;;;0.58;83.19
16664;BME280;8445;51.270;9.434;2022-12-10T08:08:07;98713.19;;;0.64;83.08
16664;BME280;8445;51.270;9.434;2022-12-10T08:10:34;98717.84;;;0.77;83.14
16664;BME280;8445;51.270;9.434;2022-12-10T08:13:00;98717.25;;;0.89;83.36
16664;BME280;8445;51.270;9.434;2022-12-10T08:15:25;98716.22;;;0.93;82.86
16664;BME280;8445;51.270;9.434;2022-12-10T08:17:54;98718.66;;;0.96;82.63
16664;BME280;8445;51.270;9.434;2022-12-10T08:20:20;98723.59;;;1.02;82.22
16664;BME280;8445;51.270;9.434;2022-12-10T08:22:46;98712.94;;;1.07;82.27
16664;BME280;8445;51.270;9.434;2022-12-10T08:25:11;98718.78;;;1.12;82.04
16664;BME280;8445;51.270;9.434;2022-12-10T08:27:37;98719.50;;;1.16;82.30
16664;BME280;8445;51.270;9.434;2022-12-10T08:30:06;98719.31;;;1.19;82.47
16664;BME280;8445;51.270;9.434;2022-12-10T08:32:37;98718.41;;;1.20;82.18
16664;BME280;8445;51.270;9.434;2022-12-10T08:35:03;98717.63;;;1.18;82.17
16664;BME280;8445;51.270;9.434;2022-12-10T08:37:28;98715.97;;;1.17;82.48
16664;BME280;8445;51.270;9.434;2022-12-10T08:39:57;98719.50;;;1.16;82.64
16664;BME280;8445;51.270;9.434;2022-12-10T08:42:23;98723.78;;;1.17;83.32
16664;BME280;8445;51.270;9.434;2022-12-10T08:44:51;98726.53;;;1.14;83.49
16664;BME280;8445;51.270;9.434;2022-12-10T08:47:17;98721.19;;;1.17;83.94
16664;BME280;8445;51.270;9.434;2022-12-10T08:49:42;98732.13;;;1.24;83.68
16664;BME280;8445;51.270;9.434;2022-12-10T08:52:08;98721.00;;;1.20;83.69
16664;BME280;8445;51.270;9.434;2022-12-10T08:54:33;98728.66;;;1.23;84.35
16664;BME280;8445;51.270;9.434;2022-12-10T08:56:59;98730.84;;;1.32;83.89
16664;BME280;8445;51.270;9.434;2022-12-10T08:59:26;98728.84;;;1.38;83.33
16664;BME280;8445;51.270;9.434;2022-12-10T09:01:52;98725.63;;;1.32;83.75
16664;BME280;8445;51.270;9.434;2022-12-10T09:04:18;98732.75;;;1.29;83.01
16664;BME280;8445;51.270;9.434;2022-12-10T09:06:43;98738.66;;;1.32;83.02
16664;BME280;8445;51.270;9.434;2022-12-10T09:09:08;98727.59;;;1.27;83.20
16664;BME280;8445;51.270;9.434;2022-12-10T09:11:34;98734.66;;;1.25;83.77
16664;BME280;8445;51.270;9.434;2022-12-10T09:14:01;98738.81;;;1.29;83.75
16664;BME280;8445;51.270;9.434;2022-12-10T09:16:32;98744.09;;;1.28;83.66
16664;BME280;8445;51.270;9.434;2022-12-10T09:18:59;98748.59;;;1.24;84.21
16664;BME280;8445;51.270;9.434;2022-12-10T09:21:24;98738.25;;;1.23;83.32
16664;BME280;8445;51.270;9.434;2022-12-10T09:23:50;98751.16;;;1.26;83.95
16664;BME280;8445;51.270;9.434;2022-12-10T09:26:20;98746.63;;;1.29;83.84
16664;BME280;8445;51.270;9.434;2022-12-10T09:28:46;98748.31;;;1.30;84.20
16664;BME280;8445;51.270;9.434;2022-12-10T09:31:13;98760.81;;;1.24;83.39
16664;BME280;8445;51.270;9.434;2022-12-10T09:33:39;98753.81;;;1.24;83.35
16664;BME280;8445;51.270;9.434;2022-12-10T09:36:06;98751.34;;;1.21;83.58
16664;BME280;8445;51.270;9.434;2022-12-10T09:38:37;98760.03;;;1.22;83.70
16664;BME280;8445;51.270;9.434;2022-12-10T09:51:29;98757.50;;;1.01;83.17
16664;BME280;8445;51.270;9.434;2022-12-10T09:53:56;98756.69;;;1.00;83.79
16664;BME280;8445;51.270;9.434;2022-12-10T09:56:30;98754.84;;;1.02;83.48
16664;BME280;8445;51.270;9.434;2022-12-10T09:58:59;98757.38;;;1.04;83.26
16664;BME280;8445;51.270;9.434;2022-12-10T10:01:29;98754.06;;;1.00;83.77
16664;BME280;8445;51.270;9.434;2022-12-10T10:03:56;98753.94;;;1.03;83.36
16664;BME280;8445;51.270;9.434;2022-12-10T10:06:23;98751.03;;;1.10;83.33
16664;BME280;8445;51.270;9.434;2022-12-10T10:08:52;98756.88;;;1.15;83.00
16664;BME280;8445;51.270;9.434;2022-12-10T10:11:23;98756.38;;;1.07;82.59
16664;BME280;8445;51.270;9.434;2022-12-10T10:13:53;98748.78;;;1.02;83.15
16664;BME280;8445;51.270;9.434;2022-12-10T10:16:23;98748.22;;;0.95;82.62
16664;BME280;8445;51.270;9.434;2022-12-10T10:19:06;98749.06;;;0.96;82.47
16664;BME280;8445;51.270;9.434;2022-12-10T10:21:42;98746.41;;;0.97;83.19
16664;BME280;8445;51.270;9.434;2022-12-10T10:24:13;98746.25;;;1.00;82.62
16664;BME280;8445;51.270;9.434;2022-12-10T10:26:40;98751.59;;;0.97;82.93
16664;BME280;8445;51.270;9.434;2022-12-10T10:29:09;98743.03;;;0.95;83.00
16664;BME280;8445;51.270;9.434;2022-12-10T10:31:39;98746.41;;;0.97;82.63
16664;BME280;8445;51.270;9.434;2022-12-10T10:34:12;98746.53;;;0.94;82.41
16664;BME280;8445;51.270;9.434;2022-12-10T10:36:38;98743.78;;;0.97;82.60
16664;BME280;8445;51.270;9.434;2022-12-10T10:39:28;98747.81;;;1.05;82.07
16664;BME280;8445;51.270;9.434;2022-12-10T10:41:56;98751.25;;;1.05;82.32
16664;BME280;8445;51.270;9.434;2022-12-10T10:44:25;98747.53;;;1.11;81.77
16664;BME280;8445;51.270;9.434;2022-12-10T10:46:55;98753.28;;;1.17;82.44
16664;BME280;8445;51.270;9.434;2022-12-10T10:49:29;98753.66;;;1.27;82.37
16664;BME280;8445;51.270;9.434;2022-12-10T10:52:12;98754.22;;;1.34;81.83
16664;BME280;8445;51.270;9.434;2022-12-10T10:54:41;98757.03;;;1.29;81.82
16664;BME280;8445;51.270;9.434;2022-12-10T10:57:21;98754.16;;;1.36;82.43
16664;BME280;8445;51.270;9.434;2022-12-10T10:59:49;98756.69;;;1.37;82.19
16664;BME280;8445;51.270;9.434;2022-12-10T11:05:14;98752.25;;;1.39;80.77
16664;BME280;8445;51.270;9.434;2022-12-10T11:07:41;98752.16;;;1.41;82.26
16664;BME280;8445;51.270;9.434;2022-12-10T11:10:23;98750.94;;;1.48;81.90
16664;BME280;8445;51.270;9.434;2022-12-10T11:15:44;98751.34;;;1.58;81.55
16664;BME280;8445;51.270;9.434;2022-12-10T11:18:32;98746.69;;;1.65;79.95
16664;BME280;8445;51.270;9.434;2022-12-10T11:21:19;98747.66;;;1.62;80.40
16664;BME280;8445;51.270;9.434;2022-12-10T11:23:49;98740.84;;;1.59;81.93
16664;BME280;8445;51.270;9.434;2022-12-10T11:42:51;98753.72;;;1.98;83.12
16664;BME280;8445;51.270;9.434;2022-12-10T11:48:05;98748.66;;;1.95;81.97
16664;BME280;8445;51.270;9.434;2022-12-10T11:50:48;98750.97;;;1.83;80.71
16664;BME280;8445;51.270;9.434;2022-12-10T11:58:43;98750.13;;;1.83;81.54
16664;BME280;8445;51.270;9.434;2022-12-10T12:01:23;98760.16;;;1.90;82.04
16664;BME280;8445;51.270;9.434;2022-12-10T12:06:53;98765.25;;;1.76;80.63
16664;BME280;8445;51.270;9.434;2022-12-10T12:17:47;98774.94;;;1.37;79.03
16664;BME280;8445;51.270;9.434;2022-12-10T12:20:37;98777.31;;;1.42;80.47
16664;BME280;8445;51.270;9.434;2022-12-10T12:23:15;98777.31;;;1.42;79.00
16664;BME280;8445;51.270;9.434;2022-12-10T12:25:46;98784.34;;;1.40;78.83
16664;BME280;8445;51.270;9.434;2022-12-10T12:28:20;98780.69;;;1.44;80.21
16664;BME280;8445;51.270;9.434;2022-12-10T12:30:51;98781.00;;;1.55;80.66
16664;BME280;8445;51.270;9.434;2022-12-10T12:33:27;98782.56;;;1.59;77.97
16664;BME280;8445;51.270;9.434;2022-12-10T12:36:04;98776.44;;;1.60;78.53
16664;BME280;8445;51.270;9.434;2022-12-10T12:38:41;98782.31;;;1.64;77.96
16664;BME280;8445;51.270;9.434;2022-12-10T12:46:01;98785.94;;;1.79;79.39
16664;BME280;8445;51.270;9.434;2022-12-10T12:51:40;98780.19;;;1.72;77.51
16664;BME280;8445;51.270;9.434;2022-12-10T12:53:46;98784.72;;;1.69;77.93
16664;BME280;8445;51.270;9.434;2022-12-10T13:01:32;98792.50;;;1.51;77.56
16664;BME280;8445;51.270;9.434;2022-12-10T13:04:02;98783.47;;;1.58;78.76
16664;BME280;8445;51.270;9.434;2022-12-10T13:06:31;98787.47;;;1.66;77.68
16664;BME280;8445;51.270;9.434;2022-12-10T13:11:46;98788.31;;;1.66;76.26
16664;BME280;8445;51.270;9.434;2022-12-10T13:14:32;98791.78;;;1.67;77.01
16664;BME280;8445;51.270;9.434;2022-12-10T13:19:44;98799.03;;;1.60;76.36
16664;BME280;8445;51.270;9.434;2022-12-10T13:25:10;98803.56;;;1.56;77.34
16664;BME280;8445;51.270;9.434;2022-12-10T13:27:37;98797.75;;;1.69;77.66
16664;BME280;8445;51.270;9.434;2022-12-10T13:37:34;98803.22;;;1.45;74.77
16664;BME280;8445;51.270;9.434;2022-12-10T13:42:35;98806.59;;;1.47;75.36
16664;BME280;8445;51.270;9.434;2022-12-10T13:47:51;98801.50;;;1.63;77.19
16664;BME280;8445;51.270;9.434;2022-12-10T13:53:04;98816.34;;;1.43;73.44
16664;BME280;8445;51.270;9.434;2022-12-10T14:01:02;98821.84;;;1.37;75.47
16664;BME280;8445;51.270;9.434;2022-12-10T14:03:56;98812.41;;;1.35;75.82
16664;BME280;8445;51.270;9.434;2022-12-10T14:06:31;98819.56;;;1.29;75.63
16664;BME280;8445;51.270;9.434;2022-12-10T14:09:05;98816.19;;;1.27;75.27
16664;BME280;8445;51.270;9.434;2022-12-10T14:11:42;98819.44;;;1.32;75.60
16664;BME280;8445;51.270;9.434;2022-12-10T14:14:22;98821.22;;;1.32;75.21
16664;BME280;8445;51.270;9.434;2022-12-10T14:16:48;98826.63;;;1.27;75.62
16664;BME280;8445;51.270;9.434;2022-12-10T14:19:15;98840.44;;;1.29;75.82
16664;BME280;8445;51.270;9.434;2022-12-10T14:21:42;98831.06;;;1.25;75.77
16664;BME280;8445;51.270;9.434;2022-12-10T14:24:26;98835.63;;;1.20;74.87
16664;BME280;8445;51.270;9.434;2022-12-10T14:27:01;98842.00;;;1.14;75.66
16664;BME280;8445;51.270;9.434;2022-12-10T14:29:28;98837.63;;;1.15;74.88
16664;BME280;8445;51.270;9.434;2022-12-10T14:31:55;98849.44;;;1.03;74.70
16664;BME280;8445;51.270;9.434;2022-12-10T14:34:25;98850.44;;;1.00;74.61
16664;BME280;8445;51.270;9.434;2022-12-10T14:36:54;98844.38;;;1.00;74.86
16664;BME280;8445;51.270;9.434;2022-12-10T14:39:32;98847.63;;;1.05;75.33
16664;BME280;8445;51.270;9.434;2022-12-10T14:42:04;98858.91;;;1.06;75.41
16664;BME280;8445;51.270;9.434;2022-12-10T14:44:32;98850.16;;;1.07;75.48
16664;BME280;8445;51.270;9.434;2022-12-10T14:47:19;98847.69;;;1.03;74.95
16664;BME280;8445;51.270;9.434;2022-12-10T14:49:50;98859.84;;;1.03;75.04
16664;BME280;8445;51.270;9.434;2022-12-10T14:52:22;98845.09;;;1.03;75.86
16664;BME280;8445;51.270;9.434;2022-12-10T14:54:48;98858.16;;;1.02;75.16
16664;BME280;8445;51.270;9.434;2022-12-10T14:57:29;98867.13;;;0.96;75.08
16664;BME280;8445;51.270;9.434;2022-12-10T15:00:10;98862.53;;;0.82;75.12
16664;BME280;8445;51.270;9.434;2022-12-10T15:02:40;98868.00;;;0.76;75.42
16664;BME280;8445;51.270;9.434;2022-12-10T15:05:16;98863.75;;;0.73;75.50
16664;BME280;8445;51.270;9.434;2022-12-10T15:07:54;98866.38;;;0.73;74.58
16664;BME280;8445;51.270;9.434;2022-12-10T15:10:28;98866.50;;;0.70;75.19
16664;BME280;8445;51.270;9.434;2022-12-10T15:12:55;98868.66;;;0.61;75.17
16664;BME280;8445;51.270;9.434;2022-12-10T15:15:29;98866.13;;;0.59;74.83
16664;BME280;8445;51.270;9.434;2022-12-10T15:18:32;98873.88;;;0.61;75.11
16664;BME280;8445;51.270;9.434;2022-12-10T15:21:09;98871.63;;;0.53;74.87
16664;BME280;8445;51.270;9.434;2022-12-10T15:23:36;98878.78;;;0.48;75.07
16664;BME280;8445;51.270;9.434;2022-12-10T15:26:18;98875.56;;;0.41;74.71
16664;BME280;8445;51.270;9.434;2022-12-10T15:28:45;98869.66;;;0.37;74.91